sensor_id;sensor_type;location;lat;lon;timestamp;P1;durP1;ratioP1;P2;durP2;ratioP2
4508;SDS011;2267;48.816;9.230;2023-03-07T00:02:12;14.30;;;13.00;;
4508;SDS011;2267;48.816;9.230;2023-03-07T00:04:42;14.00;;;12.70;;
4508;SDS011;2267;48.816;9.230;2023-03-07T00:07:11;17.70;;;13.80;;
4508;SDS011;2267;48.816;9.230;2023-03-07T00:09:38;16.30;;;14.70;;
4508;SDS011;2267;48.816;9.230;2023-03-07T00:12:06;18.10;;;16.30;;
4508;SDS011;2267;48.816;9.230;2023-03-07T00:14:33;16.40;;;14.90;;
4508;SDS011;2267;48.816;9.230;2023-03-07T00:17:00;14.10;;;12.70;;
4508;SDS011;2267;48.816;9.230;2023-03-07T00:19:27;15.63;;;13.93;;
4508;SDS011;2267;48.816;9.230;2023-03-07T00:21:54;14.50;;;13.10;;
4508;SDS011;2267;48.816;9.230;2023-03-07T00:24:21;13.10;;;11.90;;
4508;SDS011;2267;48.816;9.230;2023-03-07T00:26:48;12.80;;;11.60;;
4508;SDS011;2267;48.816;9.230;2023-03-07T00:29:14;15.27;;;13.87;;
4508;SDS011;2267;48.816;9.230;2023-03-07T00:31:41;13.93;;;12.53;;
4508;SDS011;2267;48.816;9.230;2023-03-07T00:34:08;13.80;;;12.50;;
4508;SDS011;2267;48.816;9.230;2023-03-07T00:36:35;13.40;;;11.47;;
4508;SDS011;2267;48.816;9.230;2023-03-07T00:39:02;13.60;;;12.30;;
4508;SDS011;2267;48.816;9.230;2023-03-07T00:41:29;14.03;;;12.73;;
4508;SDS011;2267;48.816;9.230;2023-03-07T00:43:56;13.33;;;12.10;;
4508;SDS011;2267;48.816;9.230;2023-03-07T00:46:24;13.53;;;12.23;;
4508;SDS011;2267;48.816;9.230;2023-03-07T00:48:51;15.37;;;12.30;;
4508;SDS011;2267;48.816;9.230;2023-03-07T00:51:19;14.83;;;13.43;;
4508;SDS011;2267;48.816;9.230;2023-03-07T00:53:47;13.00;;;11.80;;
4508;SDS011;2267;48.816;9.230;2023-03-07T00:56:15;13.10;;;11.90;;
4508;SDS011;2267;48.816;9.230;2023-03-07T00:58:46;12.77;;;11.47;;
4508;SDS011;2267;48.816;9.230;2023-03-07T01:01:14;14.00;;;12.50;;
4508;SDS011;2267;48.816;9.230;2023-03-07T01:03:44;13.97;;;12.60;;
4508;SDS011;2267;48.816;9.230;2023-03-07T01:06:16;14.13;;;12.73;;
4508;SDS011;2267;48.816;9.230;2023-03-07T01:08:44;13.47;;;12.20;;
4508;SDS011;2267;48.816;9.230;2023-03-07T01:11:11;13.20;;;11.90;;
4508;SDS011;2267;48.816;9.230;2023-03-07T01:13:39;13.27;;;11.97;;
4508;SDS011;2267;48.816;9.230;2023-03-07T01:16:07;12.77;;;11.57;;
4508;SDS011;2267;48.816;9.230;2023-03-07T01:18:47;12.13;;;11.00;;
4508;SDS011;2267;48.816;9.230;2023-03-07T01:21:20;13.67;;;12.37;;
4508;SDS011;2267;48.816;9.230;2023-03-07T01:23:48;13.27;;;11.90;;
4508;SDS011;2267;48.816;9.230;2023-03-07T01:26:17;12.23;;;11.03;;
4508;SDS011;2267;48.816;9.230;2023-03-07T01:28:46;12.77;;;11.57;;
4508;SDS011;2267;48.816;9.230;2023-03-07T01:31:13;12.33;;;11.23;;
4508;SDS011;2267;48.816;9.230;2023-03-07T01:33:39;12.23;;;11.03;;
4508;SDS011;2267;48.816;9.230;2023-03-07T01:36:14;12.20;;;11.00;;
4508;SDS011;2267;48.816;9.230;2023-03-07T01:38:48;13.83;;;12.33;;
4508;SDS011;2267;48.816;9.230;2023-03-07T01:41:15;11.43;;;10.33;;
4508;SDS011;2267;48.816;9.230;2023-03-07T01:43:42;12.40;;;11.30;;
4508;SDS011;2267;48.816;9.230;2023-03-07T01:48:54;12.33;;;11.27;;
4508;SDS011;2267;48.816;9.230;2023-03-07T01:51:33;12.50;;;11.40;;
4508;SDS011;2267;48.816;9.230;2023-03-07T01:54:01;11.33;;;10.30;;
4508;SDS011;2267;48.816;9.230;2023-03-07T01:56:31;12.47;;;11.17;;
4508;SDS011;2267;48.816;9.230;2023-03-07T01:58:59;13.17;;;12.00;;
4508;SDS011;2267;48.816;9.230;2023-03-07T02:01:26;12.43;;;11.30;;
4508;SDS011;2267;48.816;9.230;2023-03-07T02:03:55;12.30;;;11.20;;
4508;SDS011;2267;48.816;9.230;2023-03-07T02:06:27;11.90;;;10.90;;
4508;SDS011;2267;48.816;9.230;2023-03-07T02:08:58;12.70;;;11.50;;
4508;SDS011;2267;48.816;9.230;2023-03-07T02:11:26;12.63;;;11.53;;
4508;SDS011;2267;48.816;9.230;2023-03-07T02:13:54;11.57;;;10.50;;
4508;SDS011;2267;48.816;9.230;2023-03-07T02:16:20;12.30;;;11.20;;
4508;SDS011;2267;48.816;9.230;2023-03-07T02:18:48;12.10;;;11.10;;
4508;SDS011;2267;48.816;9.230;2023-03-07T02:21:32;12.50;;;11.30;;
4508;SDS011;2267;48.816;9.230;2023-03-07T02:26:38;10.60;;;9.57;;
4508;SDS011;2267;48.816;9.230;2023-03-07T02:29:13;12.40;;;11.20;;
4508;SDS011;2267;48.816;9.230;2023-03-07T02:31:40;11.77;;;10.67;;
4508;SDS011;2267;48.816;9.230;2023-03-07T02:34:18;12.53;;;11.30;;
4508;SDS011;2267;48.816;9.230;2023-03-07T02:36:49;12.43;;;10.90;;
4508;SDS011;2267;48.816;9.230;2023-03-07T02:39:21;11.83;;;10.73;;
4508;SDS011;2267;48.816;9.230;2023-03-07T02:41:51;12.40;;;11.20;;
4508;SDS011;2267;48.816;9.230;2023-03-07T02:44:20;12.23;;;11.03;;
4508;SDS011;2267;48.816;9.230;2023-03-07T02:46:47;12.43;;;11.33;;
4508;SDS011;2267;48.816;9.230;2023-03-07T02:49:13;12.37;;;11.30;;
4508;SDS011;2267;48.816;9.230;2023-03-07T02:51:40;11.80;;;10.70;;
4508;SDS011;2267;48.816;9.230;2023-03-07T02:54:07;11.67;;;10.50;;
4508;SDS011;2267;48.816;9.230;2023-03-07T02:56:34;11.93;;;10.83;;
4508;SDS011;2267;48.816;9.230;2023-03-07T02:59:01;11.60;;;10.60;;
4508;SDS011;2267;48.816;9.230;2023-03-07T03:01:28;12.40;;;11.17;;
4508;SDS011;2267;48.816;9.230;2023-03-07T03:03:55;12.37;;;11.23;;
4508;SDS011;2267;48.816;9.230;2023-03-07T03:06:22;11.90;;;10.80;;
4508;SDS011;2267;48.816;9.230;2023-03-07T03:08:49;12.13;;;11.00;;
4508;SDS011;2267;48.816;9.230;2023-03-07T03:11:16;12.27;;;11.17;;
4508;SDS011;2267;48.816;9.230;2023-03-07T03:13:43;11.93;;;10.87;;
4508;SDS011;2267;48.816;9.230;2023-03-07T03:16:09;12.47;;;11.27;;
4508;SDS011;2267;48.816;9.230;2023-03-07T03:18:36;11.63;;;10.53;;
4508;SDS011;2267;48.816;9.230;2023-03-07T03:21:07;12.10;;;11.00;;
4508;SDS011;2267;48.816;9.230;2023-03-07T03:23:35;11.97;;;10.97;;
4508;SDS011;2267;48.816;9.230;2023-03-07T03:26:04;12.87;;;11.57;;
4508;SDS011;2267;48.816;9.230;2023-03-07T03:28:36;12.87;;;11.67;;
4508;SDS011;2267;48.816;9.230;2023-03-07T03:31:07;12.43;;;11.20;;
4508;SDS011;2267;48.816;9.230;2023-03-07T03:33:41;12.60;;;11.40;;
4508;SDS011;2267;48.816;9.230;2023-03-07T03:36:13;12.77;;;11.57;;
4508;SDS011;2267;48.816;9.230;2023-03-07T03:38:41;13.40;;;12.20;;
4508;SDS011;2267;48.816;9.230;2023-03-07T03:41:12;12.83;;;11.63;;
4508;SDS011;2267;48.816;9.230;2023-03-07T03:43:42;12.40;;;11.20;;
4508;SDS011;2267;48.816;9.230;2023-03-07T03:46:09;12.67;;;11.57;;
4508;SDS011;2267;48.816;9.230;2023-03-07T03:48:36;13.40;;;12.17;;
4508;SDS011;2267;48.816;9.230;2023-03-07T03:51:04;13.67;;;12.47;;
4508;SDS011;2267;48.816;9.230;2023-03-07T03:53:33;12.63;;;11.43;;
4508;SDS011;2267;48.816;9.230;2023-03-07T03:58:30;11.70;;;10.70;;
4508;SDS011;2267;48.816;9.230;2023-03-07T04:00:57;13.63;;;12.40;;
4508;SDS011;2267;48.816;9.230;2023-03-07T04:03:27;14.10;;;12.67;;
4508;SDS011;2267;48.816;9.230;2023-03-07T04:05:58;13.03;;;11.83;;
4508;SDS011;2267;48.816;9.230;2023-03-07T04:08:30;13.10;;;11.87;;
4508;SDS011;2267;48.816;9.230;2023-03-07T04:10:58;12.87;;;11.67;;
4508;SDS011;2267;48.816;9.230;2023-03-07T04:13:25;12.70;;;11.60;;
4508;SDS011;2267;48.816;9.230;2023-03-07T04:15:52;14.50;;;13.10;;
4508;SDS011;2267;48.816;9.230;2023-03-07T04:18:22;13.63;;;12.37;;
4508;SDS011;2267;48.816;9.230;2023-03-07T04:20:50;13.93;;;12.53;;
4508;SDS011;2267;48.816;9.230;2023-03-07T04:23:18;12.50;;;11.40;;
4508;SDS011;2267;48.816;9.230;2023-03-07T04:25:46;13.27;;;12.07;;
4508;SDS011;2267;48.816;9.230;2023-03-07T04:28:21;13.20;;;12.00;;
4508;SDS011;2267;48.816;9.230;2023-03-07T04:30:50;12.60;;;11.43;;
4508;SDS011;2267;48.816;9.230;2023-03-07T04:33:19;14.20;;;12.90;;
4508;SDS011;2267;48.816;9.230;2023-03-07T04:35:46;12.80;;;11.57;;
4508;SDS011;2267;48.816;9.230;2023-03-07T04:38:14;12.80;;;11.63;;
4508;SDS011;2267;48.816;9.230;2023-03-07T04:40:41;13.07;;;11.90;;
4508;SDS011;2267;48.816;9.230;2023-03-07T04:43:07;14.37;;;12.97;;
4508;SDS011;2267;48.816;9.230;2023-03-07T04:45:35;14.80;;;13.13;;
4508;SDS011;2267;48.816;9.230;2023-03-07T04:48:02;13.47;;;12.23;;
4508;SDS011;2267;48.816;9.230;2023-03-07T04:50:29;13.93;;;12.53;;
4508;SDS011;2267;48.816;9.230;2023-03-07T04:52:56;15.23;;;13.63;;
4508;SDS011;2267;48.816;9.230;2023-03-07T04:55:23;13.63;;;12.43;;
4508;SDS011;2267;48.816;9.230;2023-03-07T04:57:50;15.83;;;13.37;;
4508;SDS011;2267;48.816;9.230;2023-03-07T05:00:17;14.47;;;13.07;;
4508;SDS011;2267;48.816;9.230;2023-03-07T05:02:45;13.50;;;12.30;;
4508;SDS011;2267;48.816;9.230;2023-03-07T05:05:13;14.80;;;13.30;;
4508;SDS011;2267;48.816;9.230;2023-03-07T05:07:40;14.57;;;13.17;;
4508;SDS011;2267;48.816;9.230;2023-03-07T05:10:08;14.20;;;12.83;;
4508;SDS011;2267;48.816;9.230;2023-03-07T05:12:36;13.67;;;12.20;;
4508;SDS011;2267;48.816;9.230;2023-03-07T05:15:02;12.93;;;11.70;;
4508;SDS011;2267;48.816;9.230;2023-03-07T05:17:29;14.73;;;13.33;;
4508;SDS011;2267;48.816;9.230;2023-03-07T05:19:56;14.00;;;12.80;;
4508;SDS011;2267;48.816;9.230;2023-03-07T05:22:23;14.40;;;13.10;;
4508;SDS011;2267;48.816;9.230;2023-03-07T05:24:50;14.53;;;13.13;;
4508;SDS011;2267;48.816;9.230;2023-03-07T05:27:17;13.27;;;12.07;;
4508;SDS011;2267;48.816;9.230;2023-03-07T05:29:43;15.10;;;13.53;;
4508;SDS011;2267;48.816;9.230;2023-03-07T05:32:10;14.83;;;13.43;;
4508;SDS011;2267;48.816;9.230;2023-03-07T05:34:37;15.00;;;13.47;;
4508;SDS011;2267;48.816;9.230;2023-03-07T05:37:04;15.70;;;14.20;;
4508;SDS011;2267;48.816;9.230;2023-03-07T05:39:31;14.80;;;13.40;;
4508;SDS011;2267;48.816;9.230;2023-03-07T05:41:57;14.13;;;12.90;;
4508;SDS011;2267;48.816;9.230;2023-03-07T05:44:24;15.47;;;13.87;;
4508;SDS011;2267;48.816;9.230;2023-03-07T05:46:51;14.33;;;12.83;;
4508;SDS011;2267;48.816;9.230;2023-03-07T05:49:18;15.13;;;13.73;;
4508;SDS011;2267;48.816;9.230;2023-03-07T05:51:44;14.47;;;13.07;;
4508;SDS011;2267;48.816;9.230;2023-03-07T05:54:11;15.13;;;13.67;;
4508;SDS011;2267;48.816;9.230;2023-03-07T05:56:38;13.97;;;12.67;;
4508;SDS011;2267;48.816;9.230;2023-03-07T05:59:05;13.13;;;11.83;;
4508;SDS011;2267;48.816;9.230;2023-03-07T06:01:33;13.80;;;12.50;;
4508;SDS011;2267;48.816;9.230;2023-03-07T06:03:59;15.00;;;13.60;;
4508;SDS011;2267;48.816;9.230;2023-03-07T06:06:26;13.97;;;12.67;;
4508;SDS011;2267;48.816;9.230;2023-03-07T06:08:53;13.10;;;11.90;;
4508;SDS011;2267;48.816;9.230;2023-03-07T06:11:20;13.23;;;12.03;;
4508;SDS011;2267;48.816;9.230;2023-03-07T06:13:47;14.97;;;12.13;;
4508;SDS011;2267;48.816;9.230;2023-03-07T06:16:14;13.57;;;12.37;;
4508;SDS011;2267;48.816;9.230;2023-03-07T06:18:40;13.97;;;12.50;;
4508;SDS011;2267;48.816;9.230;2023-03-07T06:21:07;14.27;;;13.00;;
4508;SDS011;2267;48.816;9.230;2023-03-07T06:23:36;14.07;;;12.77;;
4508;SDS011;2267;48.816;9.230;2023-03-07T06:26:02;13.90;;;12.03;;
4508;SDS011;2267;48.816;9.230;2023-03-07T06:28:30;13.40;;;12.10;;
4508;SDS011;2267;48.816;9.230;2023-03-07T06:30:58;12.27;;;11.13;;
4508;SDS011;2267;48.816;9.230;2023-03-07T06:33:25;13.40;;;12.13;;
4508;SDS011;2267;48.816;9.230;2023-03-07T06:35:52;12.30;;;11.00;;
4508;SDS011;2267;48.816;9.230;2023-03-07T06:38:18;13.47;;;12.07;;
4508;SDS011;2267;48.816;9.230;2023-03-07T06:40:53;12.33;;;11.23;;
4508;SDS011;2267;48.816;9.230;2023-03-07T06:43:21;13.10;;;11.87;;
4508;SDS011;2267;48.816;9.230;2023-03-07T06:45:47;13.40;;;12.00;;
4508;SDS011;2267;48.816;9.230;2023-03-07T06:48:14;13.00;;;11.70;;
4508;SDS011;2267;48.816;9.230;2023-03-07T06:50:43;12.73;;;11.43;;
4508;SDS011;2267;48.816;9.230;2023-03-07T06:53:10;12.33;;;11.20;;
4508;SDS011;2267;48.816;9.230;2023-03-07T06:55:37;13.93;;;12.47;;
4508;SDS011;2267;48.816;9.230;2023-03-07T06:58:04;12.43;;;11.30;;
4508;SDS011;2267;48.816;9.230;2023-03-07T07:00:31;13.10;;;11.80;;
4508;SDS011;2267;48.816;9.230;2023-03-07T07:02:58;12.90;;;11.70;;
4508;SDS011;2267;48.816;9.230;2023-03-07T07:05:25;12.50;;;11.30;;
4508;SDS011;2267;48.816;9.230;2023-03-07T07:07:52;14.70;;;13.30;;
4508;SDS011;2267;48.816;9.230;2023-03-07T07:10:18;13.10;;;11.90;;
4508;SDS011;2267;48.816;9.230;2023-03-07T07:12:45;12.00;;;10.80;;
4508;SDS011;2267;48.816;9.230;2023-03-07T07:15:12;12.70;;;11.50;;
4508;SDS011;2267;48.816;9.230;2023-03-07T07:17:39;12.53;;;11.23;;
4508;SDS011;2267;48.816;9.230;2023-03-07T07:20:06;12.10;;;10.90;;
4508;SDS011;2267;48.816;9.230;2023-03-07T07:22:36;12.00;;;10.90;;
4508;SDS011;2267;48.816;9.230;2023-03-07T07:25:03;12.73;;;11.57;;
4508;SDS011;2267;48.816;9.230;2023-03-07T07:27:30;11.17;;;10.07;;
4508;SDS011;2267;48.816;9.230;2023-03-07T07:29:56;12.93;;;11.60;;
4508;SDS011;2267;48.816;9.230;2023-03-07T07:32:23;13.80;;;12.43;;
4508;SDS011;2267;48.816;9.230;2023-03-07T07:34:51;12.77;;;11.47;;
4508;SDS011;2267;48.816;9.230;2023-03-07T07:37:17;12.00;;;10.90;;
4508;SDS011;2267;48.816;9.230;2023-03-07T07:39:44;13.40;;;12.10;;
4508;SDS011;2267;48.816;9.230;2023-03-07T07:42:11;12.93;;;11.57;;
4508;SDS011;2267;48.816;9.230;2023-03-07T07:44:38;13.20;;;11.23;;
4508;SDS011;2267;48.816;9.230;2023-03-07T07:47:05;11.73;;;10.70;;
4508;SDS011;2267;48.816;9.230;2023-03-07T07:49:32;14.40;;;12.97;;
4508;SDS011;2267;48.816;9.230;2023-03-07T07:51:58;12.70;;;10.97;;
4508;SDS011;2267;48.816;9.230;2023-03-07T07:54:25;12.73;;;11.50;;
4508;SDS011;2267;48.816;9.230;2023-03-07T07:56:53;12.20;;;11.10;;
4508;SDS011;2267;48.816;9.230;2023-03-07T07:59:20;13.00;;;11.70;;
4508;SDS011;2267;48.816;9.230;2023-03-07T08:01:46;12.73;;;11.63;;
4508;SDS011;2267;48.816;9.230;2023-03-07T08:04:13;11.50;;;10.40;;
4508;SDS011;2267;48.816;9.230;2023-03-07T08:06:40;11.47;;;10.47;;
4508;SDS011;2267;48.816;9.230;2023-03-07T08:09:09;11.83;;;10.77;;
4508;SDS011;2267;48.816;9.230;2023-03-07T08:11:36;12.13;;;11.00;;
4508;SDS011;2267;48.816;9.230;2023-03-07T08:14:03;11.83;;;10.73;;
4508;SDS011;2267;48.816;9.230;2023-03-07T08:16:30;13.50;;;11.37;;
4508;SDS011;2267;48.816;9.230;2023-03-07T08:18:56;12.40;;;11.30;;
4508;SDS011;2267;48.816;9.230;2023-03-07T08:21:24;11.53;;;10.33;;
4508;SDS011;2267;48.816;9.230;2023-03-07T08:23:54;12.63;;;11.33;;
4508;SDS011;2267;48.816;9.230;2023-03-07T08:26:21;11.90;;;10.70;;
4508;SDS011;2267;48.816;9.230;2023-03-07T08:28:49;12.07;;;10.97;;
4508;SDS011;2267;48.816;9.230;2023-03-07T08:31:17;12.03;;;10.93;;
4508;SDS011;2267;48.816;9.230;2023-03-07T08:33:49;11.50;;;10.30;;
4508;SDS011;2267;48.816;9.230;2023-03-07T08:36:16;13.20;;;10.83;;
4508;SDS011;2267;48.816;9.230;2023-03-07T08:38:46;12.17;;;10.27;;
4508;SDS011;2267;48.816;9.230;2023-03-07T08:41:17;12.37;;;11.07;;
4508;SDS011;2267;48.816;9.230;2023-03-07T08:43:45;12.03;;;10.97;;
4508;SDS011;2267;48.816;9.230;2023-03-07T08:46:11;11.53;;;10.43;;
4508;SDS011;2267;48.816;9.230;2023-03-07T08:48:38;12.07;;;10.97;;
4508;SDS011;2267;48.816;9.230;2023-03-07T08:51:06;11.27;;;10.17;;
4508;SDS011;2267;48.816;9.230;2023-03-07T08:53:36;13.10;;;11.80;;
4508;SDS011;2267;48.816;9.230;2023-03-07T08:56:06;13.20;;;11.90;;
4508;SDS011;2267;48.816;9.230;2023-03-07T08:58:38;12.73;;;11.43;;
4508;SDS011;2267;48.816;9.230;2023-03-07T09:01:05;10.80;;;9.80;;
4508;SDS011;2267;48.816;9.230;2023-03-07T09:03:33;11.27;;;10.17;;
4508;SDS011;2267;48.816;9.230;2023-03-07T09:06:01;11.83;;;10.70;;
4508;SDS011;2267;48.816;9.230;2023-03-07T09:08:28;12.57;;;10.73;;
4508;SDS011;2267;48.816;9.230;2023-03-07T09:10:57;11.40;;;10.20;;
4508;SDS011;2267;48.816;9.230;2023-03-07T09:13:25;13.20;;;9.50;;
4508;SDS011;2267;48.816;9.230;2023-03-07T09:15:52;11.50;;;9.87;;
4508;SDS011;2267;48.816;9.230;2023-03-07T09:18:19;10.57;;;9.60;;
4508;SDS011;2267;48.816;9.230;2023-03-07T09:20:48;10.90;;;9.77;;
4508;SDS011;2267;48.816;9.230;2023-03-07T09:23:14;16.90;;;10.73;;
4508;SDS011;2267;48.816;9.230;2023-03-07T09:25:41;18.43;;;9.27;;
4508;SDS011;2267;48.816;9.230;2023-03-07T09:28:09;14.20;;;9.30;;
4508;SDS011;2267;48.816;9.230;2023-03-07T09:30:36;12.40;;;9.83;;
4508;SDS011;2267;48.816;9.230;2023-03-07T09:33:03;9.87;;;8.30;;
4508;SDS011;2267;48.816;9.230;2023-03-07T09:35:30;9.33;;;8.53;;
4508;SDS011;2267;48.816;9.230;2023-03-07T09:37:57;9.80;;;8.83;;
4508;SDS011;2267;48.816;9.230;2023-03-07T09:40:24;9.77;;;8.77;;
4508;SDS011;2267;48.816;9.230;2023-03-07T09:42:59;10.10;;;9.10;;
4508;SDS011;2267;48.816;9.230;2023-03-07T09:45:33;8.53;;;7.70;;
4508;SDS011;2267;48.816;9.230;2023-03-07T09:53:59;12.33;;;8.30;;
4508;SDS011;2267;48.816;9.230;2023-03-07T09:56:37;9.60;;;7.40;;
4508;SDS011;2267;48.816;9.230;2023-03-07T09:59:15;7.77;;;7.00;;
4508;SDS011;2267;48.816;9.230;2023-03-07T10:01:58;8.00;;;7.20;;
4508;SDS011;2267;48.816;9.230;2023-03-07T10:04:34;13.50;;;8.57;;
4508;SDS011;2267;48.816;9.230;2023-03-07T10:07:24;8.10;;;7.30;;
4508;SDS011;2267;48.816;9.230;2023-03-07T10:09:54;11.83;;;7.80;;
4508;SDS011;2267;48.816;9.230;2023-03-07T10:12:29;7.43;;;6.73;;
4508;SDS011;2267;48.816;9.230;2023-03-07T10:20:36;9.10;;;7.20;;
4508;SDS011;2267;48.816;9.230;2023-03-07T10:28:36;7.90;;;7.20;;
4508;SDS011;2267;48.816;9.230;2023-03-07T10:31:23;10.93;;;7.77;;
4508;SDS011;2267;48.816;9.230;2023-03-07T10:33:54;9.00;;;8.20;;
4508;SDS011;2267;48.816;9.230;2023-03-07T10:36:22;8.43;;;7.70;;
4508;SDS011;2267;48.816;9.230;2023-03-07T10:39:05;8.50;;;7.70;;
4508;SDS011;2267;48.816;9.230;2023-03-07T10:41:37;8.80;;;7.87;;
4508;SDS011;2267;48.816;9.230;2023-03-07T10:44:03;8.70;;;7.90;;
4508;SDS011;2267;48.816;9.230;2023-03-07T10:46:30;8.73;;;7.83;;
4508;SDS011;2267;48.816;9.230;2023-03-07T10:49:11;8.17;;;7.30;;
4508;SDS011;2267;48.816;9.230;2023-03-07T10:52:03;9.03;;;8.30;;
4508;SDS011;2267;48.816;9.230;2023-03-07T10:54:33;8.17;;;7.37;;
4508;SDS011;2267;48.816;9.230;2023-03-07T10:57:03;8.60;;;7.87;;
4508;SDS011;2267;48.816;9.230;2023-03-07T10:59:42;9.20;;;8.10;;
4508;SDS011;2267;48.816;9.230;2023-03-07T11:05:17;23.07;;;8.63;;
4508;SDS011;2267;48.816;9.230;2023-03-07T11:07:56;10.07;;;9.00;;
4508;SDS011;2267;48.816;9.230;2023-03-07T11:13:33;12.37;;;9.60;;
4508;SDS011;2267;48.816;9.230;2023-03-07T11:18:41;9.90;;;8.50;;
4508;SDS011;2267;48.816;9.230;2023-03-07T11:24:03;11.80;;;8.90;;
4508;SDS011;2267;48.816;9.230;2023-03-07T11:26:54;8.60;;;7.77;;
4508;SDS011;2267;48.816;9.230;2023-03-07T11:29:25;9.20;;;8.30;;
4508;SDS011;2267;48.816;9.230;2023-03-07T11:34:48;8.70;;;7.60;;
4508;SDS011;2267;48.816;9.230;2023-03-07T11:50:54;9.13;;;8.10;;
4508;SDS011;2267;48.816;9.230;2023-03-07T11:56:21;13.53;;;8.13;;
4508;SDS011;2267;48.816;9.230;2023-03-07T12:01:50;9.17;;;8.27;;
4508;SDS011;2267;48.816;9.230;2023-03-07T12:24:39;9.83;;;7.27;;
4508;SDS011;2267;48.816;9.230;2023-03-07T12:30:16;7.93;;;7.17;;
4508;SDS011;2267;48.816;9.230;2023-03-07T12:32:47;7.50;;;6.80;;
4508;SDS011;2267;48.816;9.230;2023-03-07T12:37:54;9.27;;;8.23;;
4508;SDS011;2267;48.816;9.230;2023-03-07T12:40:28;7.70;;;7.00;;
4508;SDS011;2267;48.816;9.230;2023-03-07T12:46:23;8.70;;;7.70;;
4508;SDS011;2267;48.816;9.230;2023-03-07T12:52:14;10.10;;;8.23;;
4508;SDS011;2267;48.816;9.230;2023-03-07T12:55:36;9.07;;;8.17;;
4508;SDS011;2267;48.816;9.230;2023-03-07T12:58:20;9.90;;;7.97;;
4508;SDS011;2267;48.816;9.230;2023-03-07T13:01:00;8.47;;;7.70;;
4508;SDS011;2267;48.816;9.230;2023-03-07T13:06:02;9.93;;;8.17;;
4508;SDS011;2267;48.816;9.230;2023-03-07T13:08:31;9.93;;;8.50;;
4508;SDS011;2267;48.816;9.230;2023-03-07T13:10:59;11.67;;;8.67;;
4508;SDS011;2267;48.816;9.230;2023-03-07T13:16:12;9.10;;;8.20;;
4508;SDS011;2267;48.816;9.230;2023-03-07T13:21:54;8.27;;;7.57;;
4508;SDS011;2267;48.816;9.230;2023-03-07T13:24:27;7.70;;;7.03;;
4508;SDS011;2267;48.816;9.230;2023-03-07T13:26:57;7.27;;;6.57;;
4508;SDS011;2267;48.816;9.230;2023-03-07T14:09:58;7.67;;;6.87;;
4508;SDS011;2267;48.816;9.230;2023-03-07T14:16:18;6.73;;;5.73;;
4508;SDS011;2267;48.816;9.230;2023-03-07T14:19:03;10.50;;;9.50;;
4508;SDS011;2267;48.816;9.230;2023-03-07T14:26:56;10.90;;;7.20;;
4508;SDS011;2267;48.816;9.230;2023-03-07T14:29:25;8.97;;;7.40;;
4508;SDS011;2267;48.816;9.230;2023-03-07T14:31:55;10.70;;;7.33;;
4508;SDS011;2267;48.816;9.230;2023-03-07T14:47:34;8.00;;;6.03;;
4508;SDS011;2267;48.816;9.230;2023-03-07T14:50:19;5.83;;;5.23;;
4508;SDS011;2267;48.816;9.230;2023-03-07T14:52:56;11.60;;;7.07;;
4508;SDS011;2267;48.816;9.230;2023-03-07T14:55:30;6.90;;;6.20;;
4508;SDS011;2267;48.816;9.230;2023-03-07T14:58:01;6.40;;;5.70;;
4508;SDS011;2267;48.816;9.230;2023-03-07T15:00:28;8.30;;;5.50;;
4508;SDS011;2267;48.816;9.230;2023-03-07T15:03:00;5.00;;;4.60;;
4508;SDS011;2267;48.816;9.230;2023-03-07T15:05:34;6.03;;;5.47;;
4508;SDS011;2267;48.816;9.230;2023-03-07T15:11:05;5.77;;;5.10;;
4508;SDS011;2267;48.816;9.230;2023-03-07T15:13:48;9.53;;;5.50;;
4508;SDS011;2267;48.816;9.230;2023-03-07T15:16:20;5.73;;;4.77;;
4508;SDS011;2267;48.816;9.230;2023-03-07T15:18:56;9.10;;;5.57;;
4508;SDS011;2267;48.816;9.230;2023-03-07T15:21:31;9.47;;;6.00;;
4508;SDS011;2267;48.816;9.230;2023-03-07T15:24:05;5.60;;;4.43;;
4508;SDS011;2267;48.816;9.230;2023-03-07T15:26:48;5.03;;;4.00;;
4508;SDS011;2267;48.816;9.230;2023-03-07T15:29:17;4.90;;;4.50;;
4508;SDS011;2267;48.816;9.230;2023-03-07T15:31:57;4.93;;;4.50;;
4508;SDS011;2267;48.816;9.230;2023-03-07T15:34:30;5.37;;;4.83;;
4508;SDS011;2267;48.816;9.230;2023-03-07T15:40:48;5.23;;;4.73;;
4508;SDS011;2267;48.816;9.230;2023-03-07T15:42:48;25.70;;;8.70;;
4508;SDS011;2267;48.816;9.230;2023-03-07T15:48:07;9.00;;;5.50;;
4508;SDS011;2267;48.816;9.230;2023-03-07T15:50:36;6.33;;;4.70;;
4508;SDS011;2267;48.816;9.230;2023-03-07T15:53:07;7.13;;;5.17;;
4508;SDS011;2267;48.816;9.230;2023-03-07T15:55:35;5.43;;;4.70;;
4508;SDS011;2267;48.816;9.230;2023-03-07T15:58:04;8.60;;;5.73;;
4508;SDS011;2267;48.816;9.230;2023-03-07T16:00:39;5.53;;;5.03;;
4508;SDS011;2267;48.816;9.230;2023-03-07T16:05:53;5.00;;;4.50;;
4508;SDS011;2267;48.816;9.230;2023-03-07T16:08:21;5.13;;;4.40;;
4508;SDS011;2267;48.816;9.230;2023-03-07T16:10:54;8.90;;;5.50;;
4508;SDS011;2267;48.816;9.230;2023-03-07T16:13:22;8.63;;;4.47;;
4508;SDS011;2267;48.816;9.230;2023-03-07T16:15:57;14.90;;;6.00;;
4508;SDS011;2267;48.816;9.230;2023-03-07T16:18:29;5.87;;;5.20;;
4508;SDS011;2267;48.816;9.230;2023-03-07T16:20:57;6.00;;;5.40;;
4508;SDS011;2267;48.816;9.230;2023-03-07T16:23:24;5.23;;;4.57;;
4508;SDS011;2267;48.816;9.230;2023-03-07T16:25:54;6.33;;;5.43;;
4508;SDS011;2267;48.816;9.230;2023-03-07T16:28:22;5.70;;;4.20;;
4508;SDS011;2267;48.816;9.230;2023-03-07T16:30:50;7.07;;;5.00;;
4508;SDS011;2267;48.816;9.230;2023-03-07T16:33:16;6.60;;;5.20;;
4508;SDS011;2267;48.816;9.230;2023-03-07T16:35:43;5.70;;;5.20;;
4508;SDS011;2267;48.816;9.230;2023-03-07T16:38:10;6.13;;;4.77;;
4508;SDS011;2267;48.816;9.230;2023-03-07T16:40:41;13.60;;;5.33;;
4508;SDS011;2267;48.816;9.230;2023-03-07T16:43:22;5.10;;;4.60;;
4508;SDS011;2267;48.816;9.230;2023-03-07T16:45:59;5.93;;;5.43;;
4508;SDS011;2267;48.816;9.230;2023-03-07T16:48:27;7.33;;;5.13;;
4508;SDS011;2267;48.816;9.230;2023-03-07T16:50:54;6.03;;;4.90;;
4508;SDS011;2267;48.816;9.230;2023-03-07T16:53:21;5.63;;;5.13;;
4508;SDS011;2267;48.816;9.230;2023-03-07T16:55:47;5.57;;;5.07;;
4508;SDS011;2267;48.816;9.230;2023-03-07T16:58:25;6.17;;;5.67;;
4508;SDS011;2267;48.816;9.230;2023-03-07T17:00:56;5.80;;;5.23;;
4508;SDS011;2267;48.816;9.230;2023-03-07T17:03:24;6.13;;;5.60;;
4508;SDS011;2267;48.816;9.230;2023-03-07T17:05:52;5.60;;;5.07;;
4508;SDS011;2267;48.816;9.230;2023-03-07T17:08:19;6.27;;;5.67;;
4508;SDS011;2267;48.816;9.230;2023-03-07T17:10:46;6.30;;;5.70;;
4508;SDS011;2267;48.816;9.230;2023-03-07T17:13:13;6.27;;;5.73;;
4508;SDS011;2267;48.816;9.230;2023-03-07T17:15:42;6.43;;;5.83;;
4508;SDS011;2267;48.816;9.230;2023-03-07T17:18:10;5.27;;;4.77;;
4508;SDS011;2267;48.816;9.230;2023-03-07T17:20:38;5.87;;;5.37;;
4508;SDS011;2267;48.816;9.230;2023-03-07T17:23:06;5.43;;;4.93;;
4508;SDS011;2267;48.816;9.230;2023-03-07T17:25:33;5.60;;;5.10;;
4508;SDS011;2267;48.816;9.230;2023-03-07T17:28:05;5.77;;;5.27;;
4508;SDS011;2267;48.816;9.230;2023-03-07T17:30:35;5.73;;;5.23;;
4508;SDS011;2267;48.816;9.230;2023-03-07T17:33:02;7.97;;;7.27;;
4508;SDS011;2267;48.816;9.230;2023-03-07T17:35:29;7.77;;;7.07;;
4508;SDS011;2267;48.816;9.230;2023-03-07T17:37:56;7.23;;;6.53;;
4508;SDS011;2267;48.816;9.230;2023-03-07T17:40:23;6.57;;;5.97;;
4508;SDS011;2267;48.816;9.230;2023-03-07T17:42:50;6.30;;;5.47;;
4508;SDS011;2267;48.816;9.230;2023-03-07T17:45:17;5.93;;;5.20;;
4508;SDS011;2267;48.816;9.230;2023-03-07T17:47:44;5.10;;;4.70;;
4508;SDS011;2267;48.816;9.230;2023-03-07T17:50:16;5.57;;;5.13;;
4508;SDS011;2267;48.816;9.230;2023-03-07T17:52:49;5.93;;;5.43;;
4508;SDS011;2267;48.816;9.230;2023-03-07T17:55:17;7.83;;;6.20;;
4508;SDS011;2267;48.816;9.230;2023-03-07T17:57:45;7.30;;;6.70;;
4508;SDS011;2267;48.816;9.230;2023-03-07T18:00:12;6.93;;;6.33;;
4508;SDS011;2267;48.816;9.230;2023-03-07T18:02:40;6.33;;;5.73;;
4508;SDS011;2267;48.816;9.230;2023-03-07T18:05:10;6.63;;;6.03;;
4508;SDS011;2267;48.816;9.230;2023-03-07T18:07:39;7.93;;;6.03;;